Stena Germanica — SKPZ — position and weather

sailwx.info

Track history (hours):
 
Tides and Currents Weather Stations Pressure Air Temp Water Temp Dewpoint Dewpoint Depression Visibility Wind Speed Wind Dir Waves Ship Positions

Stena Germanica

Last reported at 2017-Jan-19 23:33 UTC. Time now 2017-Jan-19 23:35 UTC.
Position N 55°06' E 018°11'.

Length 176 m; draft 6.6 m.

Type: Ship (hazmat cat A). MMSI: 265292000.

Date/timePositionNaut miles runAvg speedWind from/ knotsBaromVisibWave heightAir tempDewpointWater temp
2017-Jan-19 23:33N 55°06' E 018°11'1413.9
2017-Jan-19 22:33N 54°58' E 018°31'1414.0
2017-Jan-19 21:33N 54°48' E 018°48'1514.6
2017-Jan-19 20:33N 54°33' E 018°51'1211.8
2017-Jan-19 19:33N 54°33' E 018°31'0 0.3
2017-Jan-19 18:33N 54°33' E 018°30'6 6.1
2017-Jan-19 17:33N 54°32' E 018°41'1313.1
2017-Jan-19 16:33N 54°42' E 018°57'1615.5
2017-Jan-19 15:33N 54°53' E 018°39'1615.7
2017-Jan-19 14:32N 55°05' E 018°21'11216.0
2017-Jan-19 07:32N 56°07' E 015°35'3 2.4
2017-Jan-19 06:23N 56°10' E 015°38'5 6.2
2017-Jan-19 05:33N 56°05' E 015°34'11216.0
2017-Jan-18 22:34N 55°03' E 018°19'1716.8
2017-Jan-18 21:34N 54°52' E 018°41'1716.6
2017-Jan-18 20:34N 54°38' E 018°57'1414.4
2017-Jan-18 19:33N 54°32' E 018°34'2 2.3
2017-Jan-18 18:33N 54°33' E 018°30'1 0.9
2017-Jan-18 17:33N 54°32' E 018°32'1313.1
2017-Jan-18 16:33N 54°36' E 018°53'1414.4
2017-Jan-18 15:34N 54°49' E 018°44'1716.6
2017-Jan-18 14:33N 55°02' E 018°25'1716.5
2017-Jan-18 13:32N 55°11' E 018°00'9912.4
2017-Jan-18 05:33N 56°07' E 015°35'9916.4
2017-Jan-17 23:33N 55°10' E 017°58'1817.8
2017-Jan-17 22:34N 54°59' E 018°22'1817.8
2017-Jan-17 21:34N 54°48' E 018°47'1514.8
2017-Jan-17 20:34N 54°34' E 018°52'1212.0
2017-Jan-17 19:34N 54°32' E 018°31'1 0.6
2017-Jan-17 18:33N 54°33' E 018°30'2 1.8
2017-Jan-17 17:33N 54°32' E 018°33'1413.9
2017-Jan-17 16:34N 54°39' E 018°54'1717.3
2017-Jan-17 15:34N 54°54' E 018°38'1817.8
2017-Jan-17 14:34N 55°05' E 018°14'10817.9
2017-Jan-17 08:33N 56°04' E 015°34'6 5.5
2017-Jan-17 07:25N 56°10' E 015°38'0 0.0
2017-Jan-17 06:25N 56°10' E 015°38'2 2.1
2017-Jan-17 05:33N 56°08' E 015°36'11614.5
2017-Jan-16 21:33N 55°01' E 018°24'1414.3
2017-Jan-16 20:33N 54°52' E 018°43'1414.0
2017-Jan-16 19:33N 54°41' E 018°59'1413.6
2017-Jan-16 18:33N 54°32' E 018°42'7 6.6
2017-Jan-16 17:31N 54°33' E 018°30'0 0.0
2017-Jan-16 16:31N 54°33' E 018°30'0 0.0
2017-Jan-16 15:31N 54°33' E 018°30'0 0.0
2017-Jan-16 14:31N 54°33' E 018°30'0 0.0
2017-Jan-16 13:31N 54°33' E 018°30'0 0.0
2017-Jan-16 12:31N 54°33' E 018°30'0 0.0
2017-Jan-16 11:31N 54°33' E 018°30'0 0.0
2017-Jan-16 10:31N 54°33' E 018°30'0 0.0
2017-Jan-16 09:31N 54°33' E 018°30'0 0.0
2017-Jan-16 08:31N 54°33' E 018°30'1 0.7
2017-Jan-16 07:34N 54°32' E 018°31'1111.4
2017-Jan-16 06:33N 54°34' E 018°51'1312.8
2017-Jan-16 05:34N 54°47' E 018°49'1414.4
2017-Jan-16 04:34N 54°58' E 018°33'1514.7
2017-Jan-16 03:33N 55°06' E 018°11'10515.0
2017-Jan-15 20:33N 56°04' E 015°35'11812.7
2017-Jan-15 11:12N 54°60' E 018°31'1117.2
2017-Jan-15 10:34N 54°51' E 018°43'1615.7
2017-Jan-15 09:34N 54°37' E 018°55'1413.8
2017-Jan-15 08:33N 54°32' E 018°33'2 1.6
2017-Jan-15 07:31N 54°33' E 018°30'0 0.0
2017-Jan-15 06:29N 54°33' E 018°30'7 7.6
2017-Jan-15 05:34N 54°32' E 018°42'1312.8
2017-Jan-15 04:34N 54°43' E 018°53'1716.8
2017-Jan-15 03:34N 54°56' E 018°35'1716.9
2017-Jan-15 02:33N 55°07' E 018°11'10516.3
2017-Jan-14 20:06N 56°04' E 015°34'610.9
2017-Jan-14 19:34N 56°10' E 015°37'0 0.3
2017-Jan-14 18:32N 56°10' E 015°38'11414.3
2017-Jan-14 10:33N 55°02' E 018°21'1717.1
2017-Jan-14 09:33N 54°52' E 018°44'1515.3
2017-Jan-14 08:33N 54°38' E 018°56'1313.0
2017-Jan-14 07:33N 54°32' E 018°36'4 3.3
2017-Jan-14 06:31N 54°33' E 018°30'1 1.5
2017-Jan-14 05:33N 54°32' E 018°32'1313.4
2017-Jan-14 04:33N 54°37' E 018°54'1717.1
2017-Jan-14 03:33N 54°52' E 018°41'12818.0
2017-Jan-13 20:28N 56°04' E 015°34'6 3.2
2017-Jan-13 18:30N 56°10' E 015°38'10715.3
2017-Jan-13 11:33N 55°06' E 018°09'1716.9
2017-Jan-13 10:33N 54°57' E 018°34'1716.8
2017-Jan-13 09:34N 54°45' E 018°53'1414.1
2017-Jan-13 08:33N 54°32' E 018°45'8 8.4
2017-Jan-13 07:33N 54°33' E 018°30'1 0.6
2017-Jan-13 06:34N 54°32' E 018°31'1010.0
2017-Jan-13 05:33N 54°33' E 018°48'1313.4
2017-Jan-13 04:33N 54°46' E 018°50'1615.6
2017-Jan-13 03:33N 54°58' E 018°32'1818.2
2017-Jan-13 02:33N 55°08' E 018°06'10217.0
2017-Jan-12 20:33N 56°04' E 015°34'5 2.8
2017-Jan-12 18:33N 56°09' E 015°37'11015.0
2017-Jan-12 11:15N 55°04' E 018°14'1216.8
2017-Jan-12 10:34N 54°58' E 018°31'1818.2
2017-Jan-12 09:34N 54°44' E 018°52'1414.1
2017-Jan-12 08:33N 54°32' E 018°42'7 6.8
2017-Jan-12 07:33N 54°33' E 018°30'0 0.3
2017-Jan-12 06:33N 54°33' E 018°31'1010.4
2017-Jan-12 05:33N 54°33' E 018°48'1514.7
2017-Jan-12 04:33N 54°48' E 018°47'1818.2
2017-Jan-12 03:33N 55°00' E 018°24'11716.7
2017-Jan-11 20:33N 56°09' E 015°37'1 0.4
2017-Jan-11 19:17N 56°10' E 015°38'10814.0
2017-Jan-11 11:32N 54°57' E 017°59'1818.3
2017-Jan-11 10:33N 54°53' E 018°29'1919.0
2017-Jan-11 09:33N 54°42' E 018°56'1414.0
2017-Jan-11 08:33N 54°32' E 018°39'5 5.4
2017-Jan-11 07:33N 54°33' E 018°30'0 0.0
2017-Jan-11 06:33N 54°33' E 018°30'7 7.3
2017-Jan-11 05:33N 54°32' E 018°43'1313.2
2017-Jan-11 04:33N 54°44' E 018°52'1717.3
2017-Jan-11 03:33N 54°57' E 018°33'1817.0
2017-Jan-11 02:30N 55°08' E 018°07'10317.2
2017-Jan-10 20:31N 56°04' E 015°35'6 6.0
2017-Jan-10 19:28N 56°10' E 015°38'0 0.0
2017-Jan-10 18:22N 56°10' E 015°38'4 5.0
2017-Jan-10 17:33N 56°06' E 015°35'8617.2
2017-Jan-10 12:33N 55°17' E 017°41'2118.0
2017-Jan-10 11:25N 55°06' E 018°10'1618.3
2017-Jan-10 10:34N 54°57' E 018°33'1818.1
2017-Jan-10 09:34N 54°44' E 018°54'1413.6
2017-Jan-10 08:33N 54°32' E 018°42'7 6.6
2017-Jan-10 07:31N 54°33' E 018°30'0 0.0
2017-Jan-10 06:31N 54°33' E 018°30'7 7.7
2017-Jan-10 05:33N 54°32' E 018°43'1413.5
2017-Jan-10 04:33N 54°45' E 018°52'1818.1
2017-Jan-10 03:33N 54°58' E 018°30'1818.1
2017-Jan-10 02:33N 55°08' E 018°03'1918.0
2017-Jan-10 01:30N 55°19' E 017°36'  
Track history (hours):
 
Tides and Currents Weather Stations Pressure Air Temp Water Temp Dewpoint Dewpoint Depression Visibility Wind Speed Wind Dir Waves Ship Positions

Stena Germanica

Last reported at 2017-Jan-19 23:33 UTC. Time now 2017-Jan-19 23:35 UTC.
Position N 55°06' E 018°11'.

Length 176 m; draft 6.6 m.

Type: Ship (hazmat cat A). MMSI: 265292000.

Date/timePositionNaut miles runAvg speedWind from/ knotsBaromVisibWave heightAir tempDewpointWater temp
2017-Jan-19 23:33N 55°06' E 018°11'1413.9
2017-Jan-19 22:33N 54°58' E 018°31'1414.0
2017-Jan-19 21:33N 54°48' E 018°48'1514.6
2017-Jan-19 20:33N 54°33' E 018°51'1211.8
2017-Jan-19 19:33N 54°33' E 018°31'0 0.3
2017-Jan-19 18:33N 54°33' E 018°30'6 6.1
2017-Jan-19 17:33N 54°32' E 018°41'1313.1
2017-Jan-19 16:33N 54°42' E 018°57'1615.5
2017-Jan-19 15:33N 54°53' E 018°39'1615.7
2017-Jan-19 14:32N 55°05' E 018°21'11216.0
2017-Jan-19 07:32N 56°07' E 015°35'3 2.4
2017-Jan-19 06:23N 56°10' E 015°38'5 6.2
2017-Jan-19 05:33N 56°05' E 015°34'11216.0
2017-Jan-18 22:34N 55°03' E 018°19'1716.8
2017-Jan-18 21:34N 54°52' E 018°41'1716.6
2017-Jan-18 20:34N 54°38' E 018°57'1414.4
2017-Jan-18 19:33N 54°32' E 018°34'2 2.3
2017-Jan-18 18:33N 54°33' E 018°30'1 0.9
2017-Jan-18 17:33N 54°32' E 018°32'1313.1
2017-Jan-18 16:33N 54°36' E 018°53'1414.4
2017-Jan-18 15:34N 54°49' E 018°44'1716.6
2017-Jan-18 14:33N 55°02' E 018°25'1716.5
2017-Jan-18 13:32N 55°11' E 018°00'9912.4
2017-Jan-18 05:33N 56°07' E 015°35'9916.4
2017-Jan-17 23:33N 55°10' E 017°58'1817.8
2017-Jan-17 22:34N 54°59' E 018°22'1817.8
2017-Jan-17 21:34N 54°48' E 018°47'1514.8
2017-Jan-17 20:34N 54°34' E 018°52'1212.0
2017-Jan-17 19:34N 54°32' E 018°31'1 0.6
2017-Jan-17 18:33N 54°33' E 018°30'2 1.8
2017-Jan-17 17:33N 54°32' E 018°33'1413.9
2017-Jan-17 16:34N 54°39' E 018°54'1717.3
2017-Jan-17 15:34N 54°54' E 018°38'1817.8
2017-Jan-17 14:34N 55°05' E 018°14'10817.9
2017-Jan-17 08:33N 56°04' E 015°34'6 5.5
2017-Jan-17 07:25N 56°10' E 015°38'0 0.0
2017-Jan-17 06:25N 56°10' E 015°38'2 2.1
2017-Jan-17 05:33N 56°08' E 015°36'11614.5
2017-Jan-16 21:33N 55°01' E 018°24'1414.3
2017-Jan-16 20:33N 54°52' E 018°43'1414.0
2017-Jan-16 19:33N 54°41' E 018°59'1413.6
2017-Jan-16 18:33N 54°32' E 018°42'7 6.6
2017-Jan-16 17:31N 54°33' E 018°30'0 0.0
2017-Jan-16 16:31N 54°33' E 018°30'0 0.0
2017-Jan-16 15:31N 54°33' E 018°30'0 0.0
2017-Jan-16 14:31N 54°33' E 018°30'0 0.0
2017-Jan-16 13:31N 54°33' E 018°30'0 0.0
2017-Jan-16 12:31N 54°33' E 018°30'0 0.0
2017-Jan-16 11:31N 54°33' E 018°30'0 0.0
2017-Jan-16 10:31N 54°33' E 018°30'0 0.0
2017-Jan-16 09:31N 54°33' E 018°30'0 0.0
2017-Jan-16 08:31N 54°33' E 018°30'1 0.7
2017-Jan-16 07:34N 54°32' E 018°31'1111.4
2017-Jan-16 06:33N 54°34' E 018°51'1312.8
2017-Jan-16 05:34N 54°47' E 018°49'1414.4
2017-Jan-16 04:34N 54°58' E 018°33'1514.7
2017-Jan-16 03:33N 55°06' E 018°11'10515.0
2017-Jan-15 20:33N 56°04' E 015°35'11812.7
2017-Jan-15 11:12N 54°60' E 018°31'1117.2
2017-Jan-15 10:34N 54°51' E 018°43'1615.7
2017-Jan-15 09:34N 54°37' E 018°55'1413.8
2017-Jan-15 08:33N 54°32' E 018°33'2 1.6
2017-Jan-15 07:31N 54°33' E 018°30'0 0.0
2017-Jan-15 06:29N 54°33' E 018°30'7 7.6
2017-Jan-15 05:34N 54°32' E 018°42'1312.8
2017-Jan-15 04:34N 54°43' E 018°53'1716.8
2017-Jan-15 03:34N 54°56' E 018°35'1716.9
2017-Jan-15 02:33N 55°07' E 018°11'10516.3
2017-Jan-14 20:06N 56°04' E 015°34'610.9
2017-Jan-14 19:34N 56°10' E 015°37'0 0.3
2017-Jan-14 18:32N 56°10' E 015°38'11414.3
2017-Jan-14 10:33N 55°02' E 018°21'1717.1
2017-Jan-14 09:33N 54°52' E 018°44'1515.3
2017-Jan-14 08:33N 54°38' E 018°56'1313.0
2017-Jan-14 07:33N 54°32' E 018°36'4 3.3
2017-Jan-14 06:31N 54°33' E 018°30'1 1.5
2017-Jan-14 05:33N 54°32' E 018°32'1313.4
2017-Jan-14 04:33N 54°37' E 018°54'1717.1
2017-Jan-14 03:33N 54°52' E 018°41'12818.0
2017-Jan-13 20:28N 56°04' E 015°34'6 3.2
2017-Jan-13 18:30N 56°10' E 015°38'10715.3
2017-Jan-13 11:33N 55°06' E 018°09'1716.9
2017-Jan-13 10:33N 54°57' E 018°34'1716.8
2017-Jan-13 09:34N 54°45' E 018°53'1414.1
2017-Jan-13 08:33N 54°32' E 018°45'8 8.4
2017-Jan-13 07:33N 54°33' E 018°30'1 0.6
2017-Jan-13 06:34N 54°32' E 018°31'1010.0
2017-Jan-13 05:33N 54°33' E 018°48'1313.4
2017-Jan-13 04:33N 54°46' E 018°50'1615.6
2017-Jan-13 03:33N 54°58' E 018°32'1818.2
2017-Jan-13 02:33N 55°08' E 018°06'10217.0
2017-Jan-12 20:33N 56°04' E 015°34'5 2.8
2017-Jan-12 18:33N 56°09' E 015°37'11015.0
2017-Jan-12 11:15N 55°04' E 018°14'1216.8
2017-Jan-12 10:34N 54°58' E 018°31'1818.2
2017-Jan-12 09:34N 54°44' E 018°52'1414.1
2017-Jan-12 08:33N 54°32' E 018°42'7 6.8
2017-Jan-12 07:33N 54°33' E 018°30'0 0.3
2017-Jan-12 06:33N 54°33' E 018°31'1010.4
2017-Jan-12 05:33N 54°33' E 018°48'1514.7
2017-Jan-12 04:33N 54°48' E 018°47'1818.2
2017-Jan-12 03:33N 55°00' E 018°24'11716.7
2017-Jan-11 20:33N 56°09' E 015°37'1 0.4
2017-Jan-11 19:17N 56°10' E 015°38'10814.0
2017-Jan-11 11:32N 54°57' E 017°59'1818.3
2017-Jan-11 10:33N 54°53' E 018°29'1919.0
2017-Jan-11 09:33N 54°42' E 018°56'1414.0
2017-Jan-11 08:33N 54°32' E 018°39'5 5.4
2017-Jan-11 07:33N 54°33' E 018°30'0 0.0
2017-Jan-11 06:33N 54°33' E 018°30'7 7.3
2017-Jan-11 05:33N 54°32' E 018°43'1313.2
2017-Jan-11 04:33N 54°44' E 018°52'1717.3
2017-Jan-11 03:33N 54°57' E 018°33'1817.0
2017-Jan-11 02:30N 55°08' E 018°07'10317.2
2017-Jan-10 20:31N 56°04' E 015°35'6 6.0
2017-Jan-10 19:28N 56°10' E 015°38'0 0.0
2017-Jan-10 18:22N 56°10' E 015°38'4 5.0
2017-Jan-10 17:33N 56°06' E 015°35'8617.2
2017-Jan-10 12:33N 55°17' E 017°41'2118.0
2017-Jan-10 11:25N 55°06' E 018°10'1618.3
2017-Jan-10 10:34N 54°57' E 018°33'1818.1
2017-Jan-10 09:34N 54°44' E 018°54'1413.6
2017-Jan-10 08:33N 54°32' E 018°42'7 6.6
2017-Jan-10 07:31N 54°33' E 018°30'0 0.0
2017-Jan-10 06:31N 54°33' E 018°30'7 7.7
2017-Jan-10 05:33N 54°32' E 018°43'1413.5
2017-Jan-10 04:33N 54°45' E 018°52'1818.1
2017-Jan-10 03:33N 54°58' E 018°30'1818.1
2017-Jan-10 02:33N 55°08' E 018°03'1918.0
2017-Jan-10 01:30N 55°19' E 017°36'  

Dump ship's entire track history